sensor_id;sensor_type;location;lat;lon;timestamp;P1;durP1;ratioP1;P2;durP2;ratioP2
4078;SDS011;2054;47.858;11.156;2024-01-25T03:46:02;6.82;;;1.48;;
4078;SDS011;2054;47.858;11.156;2024-01-25T03:48:31;6.68;;;1.48;;
4078;SDS011;2054;47.858;11.156;2024-01-25T03:50:58;5.20;;;1.63;;
4078;SDS011;2054;47.858;11.156;2024-01-25T03:53:24;3.88;;;1.30;;
4078;SDS011;2054;47.858;11.156;2024-01-25T03:55:51;6.97;;;1.20;;
4078;SDS011;2054;47.858;11.156;2024-01-25T03:58:18;4.35;;;1.20;;
4078;SDS011;2054;47.858;11.156;2024-01-25T04:00:46;5.63;;;1.20;;
4078;SDS011;2054;47.858;11.156;2024-01-25T04:03:15;5.90;;;1.42;;
4078;SDS011;2054;47.858;11.156;2024-01-25T04:05:42;6.38;;;2.35;;
4078;SDS011;2054;47.858;11.156;2024-01-25T04:08:09;2.55;;;1.13;;
4078;SDS011;2054;47.858;11.156;2024-01-25T04:10:36;5.07;;;1.30;;
4078;SDS011;2054;47.858;11.156;2024-01-25T04:13:03;5.60;;;1.35;;
4078;SDS011;2054;47.858;11.156;2024-01-25T04:15:31;5.60;;;1.52;;
4078;SDS011;2054;47.858;11.156;2024-01-25T04:17:58;5.00;;;1.10;;
4078;SDS011;2054;47.858;11.156;2024-01-25T04:20:27;6.85;;;1.33;;
4078;SDS011;2054;47.858;11.156;2024-01-25T04:22:54;4.80;;;1.90;;
4078;SDS011;2054;47.858;11.156;2024-01-25T04:25:21;4.80;;;1.35;;
4078;SDS011;2054;47.858;11.156;2024-01-25T04:27:48;3.28;;;1.15;;
4078;SDS011;2054;47.858;11.156;2024-01-25T04:30:14;5.20;;;1.50;;
4078;SDS011;2054;47.858;11.156;2024-01-25T04:32:43;5.45;;;1.10;;
4078;SDS011;2054;47.858;11.156;2024-01-25T04:35:10;3.30;;;1.25;;
4078;SDS011;2054;47.858;11.156;2024-01-25T04:37:38;6.85;;;1.35;;
4078;SDS011;2054;47.858;11.156;2024-01-25T04:40:06;2.70;;;1.20;;
4078;SDS011;2054;47.858;11.156;2024-01-25T04:42:34;6.28;;;1.25;;
4078;SDS011;2054;47.858;11.156;2024-01-25T04:45:01;3.45;;;1.30;;
4078;SDS011;2054;47.858;11.156;2024-01-25T04:47:28;4.93;;;1.17;;
4078;SDS011;2054;47.858;11.156;2024-01-25T04:49:55;3.28;;;1.33;;
4078;SDS011;2054;47.858;11.156;2024-01-25T04:52:25;4.75;;;1.10;;
4078;SDS011;2054;47.858;11.156;2024-01-25T04:54:53;6.95;;;1.20;;
4078;SDS011;2054;47.858;11.156;2024-01-25T04:57:20;3.67;;;1.30;;
4078;SDS011;2054;47.858;11.156;2024-01-25T04:59:47;3.33;;;1.13;;
4078;SDS011;2054;47.858;11.156;2024-01-25T05:02:14;2.55;;;1.10;;
4078;SDS011;2054;47.858;11.156;2024-01-25T05:04:41;6.60;;;1.10;;
4078;SDS011;2054;47.858;11.156;2024-01-25T05:07:08;5.88;;;1.33;;
4078;SDS011;2054;47.858;11.156;2024-01-25T05:09:35;8.23;;;1.30;;
4078;SDS011;2054;47.858;11.156;2024-01-25T05:12:07;2.78;;;1.35;;
4078;SDS011;2054;47.858;11.156;2024-01-25T05:14:34;3.58;;;1.00;;
4078;SDS011;2054;47.858;11.156;2024-01-25T05:17:01;4.20;;;0.90;;
4078;SDS011;2054;47.858;11.156;2024-01-25T05:19:28;5.30;;;1.98;;
4078;SDS011;2054;47.858;11.156;2024-01-25T05:21:55;8.07;;;1.63;;
4078;SDS011;2054;47.858;11.156;2024-01-25T05:24:22;6.80;;;2.10;;
4078;SDS011;2054;47.858;11.156;2024-01-25T05:26:49;2.42;;;0.90;;
4078;SDS011;2054;47.858;11.156;2024-01-25T05:29:19;3.35;;;1.30;;
4078;SDS011;2054;47.858;11.156;2024-01-25T05:31:46;5.55;;;1.25;;
4078;SDS011;2054;47.858;11.156;2024-01-25T05:34:13;5.80;;;1.65;;
4078;SDS011;2054;47.858;11.156;2024-01-25T05:36:40;8.68;;;2.28;;
4078;SDS011;2054;47.858;11.156;2024-01-25T05:39:09;7.35;;;1.60;;
4078;SDS011;2054;47.858;11.156;2024-01-25T05:41:37;1.95;;;1.20;;
4078;SDS011;2054;47.858;11.156;2024-01-25T05:44:04;3.90;;;1.80;;
4078;SDS011;2054;47.858;11.156;2024-01-25T05:46:32;4.47;;;1.52;;
4078;SDS011;2054;47.858;11.156;2024-01-25T05:49:01;2.67;;;1.10;;
4078;SDS011;2054;47.858;11.156;2024-01-25T05:51:28;9.07;;;1.25;;
4078;SDS011;2054;47.858;11.156;2024-01-25T05:53:55;2.08;;;1.40;;
4078;SDS011;2054;47.858;11.156;2024-01-25T05:56:22;7.10;;;1.30;;
4078;SDS011;2054;47.858;11.156;2024-01-25T05:58:50;3.83;;;1.00;;
4078;SDS011;2054;47.858;11.156;2024-01-25T06:01:18;8.10;;;1.70;;
4078;SDS011;2054;47.858;11.156;2024-01-25T06:03:47;5.38;;;1.00;;
4078;SDS011;2054;47.858;11.156;2024-01-25T06:06:14;1.27;;;1.00;;
4078;SDS011;2054;47.858;11.156;2024-01-25T06:08:41;5.45;;;1.33;;
4078;SDS011;2054;47.858;11.156;2024-01-25T06:11:08;3.55;;;1.30;;
4078;SDS011;2054;47.858;11.156;2024-01-25T06:13:36;3.55;;;1.40;;
4078;SDS011;2054;47.858;11.156;2024-01-25T06:16:03;5.82;;;1.70;;
4078;SDS011;2054;47.858;11.156;2024-01-25T06:18:31;5.43;;;1.50;;
4078;SDS011;2054;47.858;11.156;2024-01-25T06:20:59;9.50;;;1.58;;
4078;SDS011;2054;47.858;11.156;2024-01-25T06:23:26;7.28;;;1.40;;
4078;SDS011;2054;47.858;11.156;2024-01-25T06:25:53;9.35;;;1.30;;
4078;SDS011;2054;47.858;11.156;2024-01-25T06:28:20;4.03;;;1.10;;
4078;SDS011;2054;47.858;11.156;2024-01-25T06:30:47;2.58;;;1.40;;
4078;SDS011;2054;47.858;11.156;2024-01-25T06:33:14;2.83;;;1.20;;
4078;SDS011;2054;47.858;11.156;2024-01-25T06:35:42;4.18;;;1.17;;
4078;SDS011;2054;47.858;11.156;2024-01-25T06:38:10;5.60;;;1.48;;
4078;SDS011;2054;47.858;11.156;2024-01-25T06:40:37;5.25;;;1.20;;
4078;SDS011;2054;47.858;11.156;2024-01-25T06:43:04;4.65;;;1.15;;
4078;SDS011;2054;47.858;11.156;2024-01-25T06:45:32;4.20;;;1.33;;
4078;SDS011;2054;47.858;11.156;2024-01-25T06:47:59;4.20;;;1.20;;
4078;SDS011;2054;47.858;11.156;2024-01-25T06:50:27;6.22;;;1.60;;
4078;SDS011;2054;47.858;11.156;2024-01-25T06:52:55;5.30;;;1.27;;
4078;SDS011;2054;47.858;11.156;2024-01-25T06:55:24;3.70;;;1.20;;
4078;SDS011;2054;47.858;11.156;2024-01-25T06:57:50;2.50;;;1.20;;
4078;SDS011;2054;47.858;11.156;2024-01-25T07:00:18;3.55;;;0.90;;
4078;SDS011;2054;47.858;11.156;2024-01-25T07:02:52;5.30;;;1.35;;
4078;SDS011;2054;47.858;11.156;2024-01-25T07:05:19;3.40;;;0.90;;
4078;SDS011;2054;47.858;11.156;2024-01-25T07:07:47;7.35;;;2.38;;
4078;SDS011;2054;47.858;11.156;2024-01-25T07:10:14;13.15;;;4.47;;
4078;SDS011;2054;47.858;11.156;2024-01-25T07:12:43;5.20;;;1.27;;
4078;SDS011;2054;47.858;11.156;2024-01-25T07:15:10;1.75;;;1.10;;
4078;SDS011;2054;47.858;11.156;2024-01-25T07:17:37;4.07;;;1.17;;
4078;SDS011;2054;47.858;11.156;2024-01-25T07:20:04;6.20;;;1.00;;
4078;SDS011;2054;47.858;11.156;2024-01-25T07:22:32;4.07;;;1.05;;
4078;SDS011;2054;47.858;11.156;2024-01-25T07:24:59;1.10;;;0.88;;
4078;SDS011;2054;47.858;11.156;2024-01-25T07:27:26;2.38;;;1.02;;
4078;SDS011;2054;47.858;11.156;2024-01-25T07:30:00;1.67;;;1.05;;
4078;SDS011;2054;47.858;11.156;2024-01-25T07:32:27;2.67;;;1.05;;
4078;SDS011;2054;47.858;11.156;2024-01-25T07:34:55;1.75;;;1.10;;
4078;SDS011;2054;47.858;11.156;2024-01-25T07:37:22;3.92;;;1.00;;
4078;SDS011;2054;47.858;11.156;2024-01-25T07:39:49;6.72;;;1.20;;
4078;SDS011;2054;47.858;11.156;2024-01-25T07:42:17;2.72;;;1.00;;
4078;SDS011;2054;47.858;11.156;2024-01-25T07:44:44;2.80;;;1.08;;
4078;SDS011;2054;47.858;11.156;2024-01-25T07:47:12;3.90;;;0.77;;
4078;SDS011;2054;47.858;11.156;2024-01-25T07:49:40;4.25;;;1.10;;
4078;SDS011;2054;47.858;11.156;2024-01-25T07:52:09;3.13;;;1.20;;
4078;SDS011;2054;47.858;11.156;2024-01-25T07:54:38;2.97;;;1.10;;
4078;SDS011;2054;47.858;11.156;2024-01-25T07:57:05;1.50;;;1.00;;
4078;SDS011;2054;47.858;11.156;2024-01-25T07:59:33;2.92;;;0.75;;
4078;SDS011;2054;47.858;11.156;2024-01-25T08:02:01;1.77;;;0.90;;
4078;SDS011;2054;47.858;11.156;2024-01-25T08:04:30;3.50;;;1.20;;
4078;SDS011;2054;47.858;11.156;2024-01-25T08:06:59;1.90;;;1.00;;
4078;SDS011;2054;47.858;11.156;2024-01-25T08:09:26;4.95;;;1.13;;
4078;SDS011;2054;47.858;11.156;2024-01-25T08:11:53;0.93;;;0.80;;
4078;SDS011;2054;47.858;11.156;2024-01-25T08:14:20;3.65;;;1.00;;
4078;SDS011;2054;47.858;11.156;2024-01-25T08:16:46;3.20;;;0.90;;
4078;SDS011;2054;47.858;11.156;2024-01-25T08:19:16;5.40;;;1.13;;
4078;SDS011;2054;47.858;11.156;2024-01-25T08:21:45;3.67;;;0.88;;
4078;SDS011;2054;47.858;11.156;2024-01-25T08:24:12;1.98;;;0.80;;
4078;SDS011;2054;47.858;11.156;2024-01-25T08:26:41;2.53;;;0.90;;
4078;SDS011;2054;47.858;11.156;2024-01-25T08:29:08;2.47;;;1.00;;
4078;SDS011;2054;47.858;11.156;2024-01-25T08:31:35;2.50;;;1.60;;
4078;SDS011;2054;47.858;11.156;2024-01-25T08:34:03;2.03;;;0.82;;
4078;SDS011;2054;47.858;11.156;2024-01-25T08:36:30;3.83;;;0.80;;
4078;SDS011;2054;47.858;11.156;2024-01-25T08:38:58;4.03;;;1.00;;
4078;SDS011;2054;47.858;11.156;2024-01-25T08:41:27;1.88;;;0.80;;
4078;SDS011;2054;47.858;11.156;2024-01-25T08:43:57;1.30;;;0.73;;
4078;SDS011;2054;47.858;11.156;2024-01-25T08:46:24;3.60;;;0.80;;
4078;SDS011;2054;47.858;11.156;2024-01-25T08:48:51;3.25;;;0.90;;
4078;SDS011;2054;47.858;11.156;2024-01-25T08:51:18;2.78;;;0.90;;
4078;SDS011;2054;47.858;11.156;2024-01-25T08:53:46;4.32;;;1.00;;
4078;SDS011;2054;47.858;11.156;2024-01-25T08:56:17;2.95;;;0.90;;
4078;SDS011;2054;47.858;11.156;2024-01-25T08:58:44;2.08;;;1.02;;
4078;SDS011;2054;47.858;11.156;2024-01-25T09:01:12;5.57;;;1.98;;
4078;SDS011;2054;47.858;11.156;2024-01-25T09:03:40;2.38;;;1.20;;
4078;SDS011;2054;47.858;11.156;2024-01-25T09:06:07;4.07;;;1.10;;
4078;SDS011;2054;47.858;11.156;2024-01-25T09:08:34;2.78;;;1.00;;
4078;SDS011;2054;47.858;11.156;2024-01-25T09:11:01;3.63;;;1.00;;
4078;SDS011;2054;47.858;11.156;2024-01-25T09:13:33;2.53;;;0.85;;
4078;SDS011;2054;47.858;11.156;2024-01-25T09:16:00;4.22;;;0.95;;
4078;SDS011;2054;47.858;11.156;2024-01-25T09:18:27;5.30;;;1.58;;
4078;SDS011;2054;47.858;11.156;2024-01-25T09:20:53;2.42;;;1.02;;
4078;SDS011;2054;47.858;11.156;2024-01-25T09:23:21;2.17;;;0.85;;
4078;SDS011;2054;47.858;11.156;2024-01-25T09:25:48;1.65;;;0.80;;
4078;SDS011;2054;47.858;11.156;2024-01-25T09:28:16;1.70;;;0.88;;
4078;SDS011;2054;47.858;11.156;2024-01-25T09:30:45;3.65;;;1.17;;
4078;SDS011;2054;47.858;11.156;2024-01-25T09:33:14;5.55;;;1.50;;
4078;SDS011;2054;47.858;11.156;2024-01-25T09:35:41;1.83;;;0.77;;
4078;SDS011;2054;47.858;11.156;2024-01-25T09:38:11;5.57;;;1.13;;
4078;SDS011;2054;47.858;11.156;2024-01-25T09:40:38;2.95;;;1.05;;
4078;SDS011;2054;47.858;11.156;2024-01-25T09:43:06;2.80;;;0.90;;
4078;SDS011;2054;47.858;11.156;2024-01-25T09:45:33;4.30;;;1.50;;
4078;SDS011;2054;47.858;11.156;2024-01-25T09:48:02;2.20;;;1.77;;
4078;SDS011;2054;47.858;11.156;2024-01-25T09:50:30;5.75;;;1.20;;
4078;SDS011;2054;47.858;11.156;2024-01-25T09:52:59;3.90;;;1.20;;
4078;SDS011;2054;47.858;11.156;2024-01-25T09:55:26;4.88;;;1.38;;
4078;SDS011;2054;47.858;11.156;2024-01-25T09:57:53;5.78;;;1.30;;
4078;SDS011;2054;47.858;11.156;2024-01-25T10:00:23;5.13;;;1.38;;
4078;SDS011;2054;47.858;11.156;2024-01-25T10:02:52;3.40;;;1.27;;
4078;SDS011;2054;47.858;11.156;2024-01-25T10:05:20;3.83;;;1.35;;
4078;SDS011;2054;47.858;11.156;2024-01-25T10:07:48;6.50;;;1.05;;
4078;SDS011;2054;47.858;11.156;2024-01-25T10:10:16;5.13;;;1.25;;
4078;SDS011;2054;47.858;11.156;2024-01-25T10:12:49;4.88;;;1.20;;
4078;SDS011;2054;47.858;11.156;2024-01-25T10:15:15;12.85;;;2.00;;
4078;SDS011;2054;47.858;11.156;2024-01-25T10:17:43;10.07;;;2.00;;
4078;SDS011;2054;47.858;11.156;2024-01-25T10:20:11;7.68;;;1.77;;
4078;SDS011;2054;47.858;11.156;2024-01-25T10:22:42;8.52;;;1.45;;
4078;SDS011;2054;47.858;11.156;2024-01-25T10:25:11;6.38;;;1.40;;
4078;SDS011;2054;47.858;11.156;2024-01-25T10:27:41;7.07;;;2.13;;
4078;SDS011;2054;47.858;11.156;2024-01-25T10:30:08;6.82;;;1.40;;
4078;SDS011;2054;47.858;11.156;2024-01-25T10:32:39;10.63;;;2.13;;
4078;SDS011;2054;47.858;11.156;2024-01-25T10:35:08;11.23;;;1.65;;
4078;SDS011;2054;47.858;11.156;2024-01-25T10:37:37;8.25;;;1.58;;
4078;SDS011;2054;47.858;11.156;2024-01-25T10:40:09;10.07;;;1.80;;
4078;SDS011;2054;47.858;11.156;2024-01-25T10:42:37;6.22;;;1.45;;
4078;SDS011;2054;47.858;11.156;2024-01-25T10:45:05;5.82;;;1.55;;
4078;SDS011;2054;47.858;11.156;2024-01-25T10:47:35;3.80;;;1.40;;
4078;SDS011;2054;47.858;11.156;2024-01-25T10:50:06;5.82;;;1.40;;
4078;SDS011;2054;47.858;11.156;2024-01-25T10:52:34;4.93;;;1.20;;
4078;SDS011;2054;47.858;11.156;2024-01-25T10:55:03;5.97;;;1.40;;
4078;SDS011;2054;47.858;11.156;2024-01-25T10:57:36;6.18;;;1.65;;
4078;SDS011;2054;47.858;11.156;2024-01-25T11:00:05;9.23;;;4.13;;
4078;SDS011;2054;47.858;11.156;2024-01-25T11:02:36;6.00;;;1.67;;
4078;SDS011;2054;47.858;11.156;2024-01-25T11:05:11;5.68;;;1.80;;
4078;SDS011;2054;47.858;11.156;2024-01-25T11:07:41;9.32;;;1.80;;
4078;SDS011;2054;47.858;11.156;2024-01-25T11:10:11;7.18;;;1.98;;
4078;SDS011;2054;47.858;11.156;2024-01-25T11:12:51;5.97;;;1.65;;
4078;SDS011;2054;47.858;11.156;2024-01-25T11:15:21;5.95;;;1.60;;
4078;SDS011;2054;47.858;11.156;2024-01-25T11:17:53;8.63;;;1.60;;
4078;SDS011;2054;47.858;11.156;2024-01-25T11:20:21;6.28;;;1.75;;
4078;SDS011;2054;47.858;11.156;2024-01-25T11:22:55;6.18;;;1.35;;
4078;SDS011;2054;47.858;11.156;2024-01-25T11:25:23;19.42;;;7.43;;
4078;SDS011;2054;47.858;11.156;2024-01-25T11:27:54;6.63;;;1.48;;
4078;SDS011;2054;47.858;11.156;2024-01-25T11:30:22;6.60;;;1.38;;
4078;SDS011;2054;47.858;11.156;2024-01-25T11:32:49;4.97;;;1.52;;
4078;SDS011;2054;47.858;11.156;2024-01-25T11:35:16;2.47;;;1.10;;
4078;SDS011;2054;47.858;11.156;2024-01-25T11:37:44;4.22;;;1.70;;
4078;SDS011;2054;47.858;11.156;2024-01-25T11:40:15;5.07;;;1.58;;
4078;SDS011;2054;47.858;11.156;2024-01-25T11:42:42;6.95;;;1.50;;
4078;SDS011;2054;47.858;11.156;2024-01-25T11:45:18;3.53;;;1.17;;
4078;SDS011;2054;47.858;11.156;2024-01-25T11:47:45;3.55;;;1.63;;
4078;SDS011;2054;47.858;11.156;2024-01-25T11:50:12;4.82;;;1.10;;
4078;SDS011;2054;47.858;11.156;2024-01-25T11:52:40;4.97;;;1.25;;
4078;SDS011;2054;47.858;11.156;2024-01-25T11:55:09;6.35;;;1.33;;
4078;SDS011;2054;47.858;11.156;2024-01-25T11:57:37;2.75;;;0.90;;
4078;SDS011;2054;47.858;11.156;2024-01-25T12:00:07;1.73;;;0.85;;
4078;SDS011;2054;47.858;11.156;2024-01-25T12:02:37;1.10;;;0.80;;
4078;SDS011;2054;47.858;11.156;2024-01-25T12:05:08;1.08;;;0.80;;
4078;SDS011;2054;47.858;11.156;2024-01-25T12:07:38;1.48;;;0.80;;
4078;SDS011;2054;47.858;11.156;2024-01-25T12:10:06;3.03;;;0.95;;
4078;SDS011;2054;47.858;11.156;2024-01-25T12:12:35;1.90;;;0.90;;
4078;SDS011;2054;47.858;11.156;2024-01-25T12:15:04;1.23;;;0.80;;
4078;SDS011;2054;47.858;11.156;2024-01-25T12:17:33;0.95;;;0.68;;
4078;SDS011;2054;47.858;11.156;2024-01-25T12:20:03;1.38;;;0.70;;
4078;SDS011;2054;47.858;11.156;2024-01-25T12:22:35;0.68;;;0.68;;
4078;SDS011;2054;47.858;11.156;2024-01-25T12:25:06;1.08;;;0.73;;
4078;SDS011;2054;47.858;11.156;2024-01-25T12:27:33;0.82;;;0.70;;
4078;SDS011;2054;47.858;11.156;2024-01-25T12:30:01;2.58;;;0.80;;
4078;SDS011;2054;47.858;11.156;2024-01-25T12:32:33;1.70;;;0.80;;
4078;SDS011;2054;47.858;11.156;2024-01-25T12:35:00;0.93;;;0.90;;
4078;SDS011;2054;47.858;11.156;2024-01-25T12:37:30;1.15;;;0.65;;
4078;SDS011;2054;47.858;11.156;2024-01-25T12:39:59;0.60;;;0.60;;
4078;SDS011;2054;47.858;11.156;2024-01-25T12:42:27;0.60;;;0.60;;
4078;SDS011;2054;47.858;11.156;2024-01-25T12:44:54;1.58;;;1.02;;
4078;SDS011;2054;47.858;11.156;2024-01-25T12:47:21;2.08;;;0.70;;
4078;SDS011;2054;47.858;11.156;2024-01-25T12:49:48;1.17;;;0.70;;
4078;SDS011;2054;47.858;11.156;2024-01-25T12:52:18;0.63;;;0.63;;
4078;SDS011;2054;47.858;11.156;2024-01-25T12:54:45;0.70;;;0.70;;
4078;SDS011;2054;47.858;11.156;2024-01-25T12:57:12;1.98;;;0.80;;
4078;SDS011;2054;47.858;11.156;2024-01-25T12:59:39;0.60;;;0.60;;
4078;SDS011;2054;47.858;11.156;2024-01-25T13:02:06;1.05;;;0.95;;
4078;SDS011;2054;47.858;11.156;2024-01-25T13:04:33;1.67;;;1.50;;
4078;SDS011;2054;47.858;11.156;2024-01-25T13:07:00;0.70;;;0.70;;
4078;SDS011;2054;47.858;11.156;2024-01-25T13:09:29;1.70;;;1.20;;
4078;SDS011;2054;47.858;11.156;2024-01-25T13:11:58;0.95;;;0.70;;
4078;SDS011;2054;47.858;11.156;2024-01-25T13:14:26;2.05;;;0.70;;
4078;SDS011;2054;47.858;11.156;2024-01-25T13:16:53;1.30;;;0.80;;
4078;SDS011;2054;47.858;11.156;2024-01-25T13:19:20;2.40;;;1.13;;
4078;SDS011;2054;47.858;11.156;2024-01-25T13:21:48;1.85;;;0.80;;
4078;SDS011;2054;47.858;11.156;2024-01-25T13:24:14;1.00;;;0.85;;
4078;SDS011;2054;47.858;11.156;2024-01-25T13:26:43;0.93;;;0.73;;
4078;SDS011;2054;47.858;11.156;2024-01-25T13:29:10;1.65;;;1.08;;
4078;SDS011;2054;47.858;11.156;2024-01-25T13:31:38;0.80;;;0.80;;
4078;SDS011;2054;47.858;11.156;2024-01-25T13:34:05;1.02;;;0.80;;
4078;SDS011;2054;47.858;11.156;2024-01-25T13:36:33;0.50;;;0.50;;
4078;SDS011;2054;47.858;11.156;2024-01-25T13:39:00;0.85;;;0.70;;
4078;SDS011;2054;47.858;11.156;2024-01-25T13:41:28;1.13;;;0.70;;
4078;SDS011;2054;47.858;11.156;2024-01-25T13:43:56;0.60;;;0.60;;
4078;SDS011;2054;47.858;11.156;2024-01-25T13:46:23;0.70;;;0.70;;
4078;SDS011;2054;47.858;11.156;2024-01-25T13:48:50;1.33;;;0.80;;
4078;SDS011;2054;47.858;11.156;2024-01-25T13:51:18;0.70;;;0.70;;
4078;SDS011;2054;47.858;11.156;2024-01-25T13:53:45;0.57;;;0.57;;
4078;SDS011;2054;47.858;11.156;2024-01-25T13:56:15;1.45;;;0.70;;
4078;SDS011;2054;47.858;11.156;2024-01-25T13:58:43;0.75;;;0.70;;
4078;SDS011;2054;47.858;11.156;2024-01-25T14:01:11;1.75;;;0.93;;
4078;SDS011;2054;47.858;11.156;2024-01-25T14:03:38;1.20;;;1.10;;
4078;SDS011;2054;47.858;11.156;2024-01-25T14:06:05;1.27;;;0.57;;
4078;SDS011;2054;47.858;11.156;2024-01-25T14:08:34;1.40;;;0.77;;
4078;SDS011;2054;47.858;11.156;2024-01-25T14:11:02;1.35;;;1.13;;
4078;SDS011;2054;47.858;11.156;2024-01-25T14:13:30;0.90;;;0.80;;
4078;SDS011;2054;47.858;11.156;2024-01-25T14:15:57;1.30;;;0.88;;
4078;SDS011;2054;47.858;11.156;2024-01-25T14:18:26;1.20;;;0.57;;
4078;SDS011;2054;47.858;11.156;2024-01-25T14:20:55;2.13;;;1.00;;
4078;SDS011;2054;47.858;11.156;2024-01-25T14:23:22;1.75;;;0.80;;
4078;SDS011;2054;47.858;11.156;2024-01-25T14:25:49;2.88;;;0.88;;
4078;SDS011;2054;47.858;11.156;2024-01-25T14:28:16;1.35;;;1.00;;
4078;SDS011;2054;47.858;11.156;2024-01-25T14:30:43;1.35;;;0.80;;
4078;SDS011;2054;47.858;11.156;2024-01-25T14:33:11;4.18;;;2.35;;
4078;SDS011;2054;47.858;11.156;2024-01-25T14:35:39;6.57;;;2.55;;
4078;SDS011;2054;47.858;11.156;2024-01-25T14:38:06;2.13;;;1.45;;
4078;SDS011;2054;47.858;11.156;2024-01-25T14:40:33;1.00;;;0.90;;
4078;SDS011;2054;47.858;11.156;2024-01-25T14:43:00;0.60;;;0.60;;
4078;SDS011;2054;47.858;11.156;2024-01-25T14:45:27;1.67;;;0.88;;
4078;SDS011;2054;47.858;11.156;2024-01-25T14:47:55;0.93;;;0.80;;
4078;SDS011;2054;47.858;11.156;2024-01-25T14:50:23;0.70;;;0.70;;
4078;SDS011;2054;47.858;11.156;2024-01-25T14:52:51;0.77;;;0.75;;
4078;SDS011;2054;47.858;11.156;2024-01-25T14:55:18;1.17;;;1.10;;
4078;SDS011;2054;47.858;11.156;2024-01-25T14:57:45;2.72;;;1.80;;
4078;SDS011;2054;47.858;11.156;2024-01-25T15:00:12;1.50;;;1.00;;
4078;SDS011;2054;47.858;11.156;2024-01-25T15:02:44;0.63;;;0.63;;
4078;SDS011;2054;47.858;11.156;2024-01-25T15:05:11;1.00;;;0.90;;
4078;SDS011;2054;47.858;11.156;2024-01-25T15:07:38;3.15;;;1.10;;
4078;SDS011;2054;47.858;11.156;2024-01-25T15:10:08;1.23;;;0.90;;
4078;SDS011;2054;47.858;11.156;2024-01-25T15:12:36;0.98;;;0.80;;
4078;SDS011;2054;47.858;11.156;2024-01-25T15:15:05;0.73;;;0.70;;
4078;SDS011;2054;47.858;11.156;2024-01-25T15:17:33;0.98;;;0.70;;
4078;SDS011;2054;47.858;11.156;2024-01-25T15:20:00;2.15;;;0.80;;
4078;SDS011;2054;47.858;11.156;2024-01-25T15:22:27;1.38;;;0.75;;
4078;SDS011;2054;47.858;11.156;2024-01-25T15:24:56;0.85;;;0.65;;
4078;SDS011;2054;47.858;11.156;2024-01-25T15:27:24;1.02;;;0.68;;
4078;SDS011;2054;47.858;11.156;2024-01-25T15:29:52;1.25;;;1.00;;
4078;SDS011;2054;47.858;11.156;2024-01-25T15:32:19;0.68;;;0.68;;
4078;SDS011;2054;47.858;11.156;2024-01-25T15:34:46;1.73;;;0.70;;
4078;SDS011;2054;47.858;11.156;2024-01-25T15:37:14;1.27;;;0.80;;
4078;SDS011;2054;47.858;11.156;2024-01-25T15:39:41;1.13;;;0.80;;
4078;SDS011;2054;47.858;11.156;2024-01-25T15:42:09;1.50;;;0.95;;
4078;SDS011;2054;47.858;11.156;2024-01-25T15:44:38;2.30;;;1.42;;
4078;SDS011;2054;47.858;11.156;2024-01-25T15:47:07;1.05;;;0.90;;
4078;SDS011;2054;47.858;11.156;2024-01-25T15:49:34;0.93;;;0.70;;
4078;SDS011;2054;47.858;11.156;2024-01-25T15:52:01;0.70;;;0.70;;
4078;SDS011;2054;47.858;11.156;2024-01-25T15:54:28;0.52;;;0.52;;
4078;SDS011;2054;47.858;11.156;2024-01-25T15:56:55;0.75;;;0.75;;
4078;SDS011;2054;47.858;11.156;2024-01-25T15:59:22;2.05;;;1.30;;
4078;SDS011;2054;47.858;11.156;2024-01-25T16:01:51;1.38;;;1.25;;
4078;SDS011;2054;47.858;11.156;2024-01-25T16:04:18;1.20;;;1.20;;
4078;SDS011;2054;47.858;11.156;2024-01-25T16:06:45;0.90;;;0.90;;
4078;SDS011;2054;47.858;11.156;2024-01-25T16:09:12;1.00;;;0.88;;
4078;SDS011;2054;47.858;11.156;2024-01-25T16:11:39;1.75;;;1.23;;
4078;SDS011;2054;47.858;11.156;2024-01-25T16:14:06;1.50;;;1.00;;
4078;SDS011;2054;47.858;11.156;2024-01-25T16:16:33;1.80;;;1.08;;
4078;SDS011;2054;47.858;11.156;2024-01-25T16:19:01;2.83;;;1.80;;
4078;SDS011;2054;47.858;11.156;2024-01-25T16:21:28;3.22;;;2.05;;
4078;SDS011;2054;47.858;11.156;2024-01-25T16:23:55;1.95;;;1.20;;
4078;SDS011;2054;47.858;11.156;2024-01-25T16:26:24;1.10;;;1.00;;
4078;SDS011;2054;47.858;11.156;2024-01-25T16:28:51;1.23;;;1.00;;
4078;SDS011;2054;47.858;11.156;2024-01-25T16:31:17;1.70;;;1.35;;
4078;SDS011;2054;47.858;11.156;2024-01-25T16:33:47;1.60;;;1.50;;
4078;SDS011;2054;47.858;11.156;2024-01-25T16:36:15;2.25;;;1.92;;
4078;SDS011;2054;47.858;11.156;2024-01-25T16:38:42;2.58;;;2.38;;
4078;SDS011;2054;47.858;11.156;2024-01-25T16:41:09;1.25;;;1.08;;
4078;SDS011;2054;47.858;11.156;2024-01-25T16:43:36;1.95;;;1.40;;
4078;SDS011;2054;47.858;11.156;2024-01-25T16:46:03;1.80;;;1.40;;
4078;SDS011;2054;47.858;11.156;2024-01-25T16:48:31;2.45;;;1.35;;
4078;SDS011;2054;47.858;11.156;2024-01-25T16:50:59;2.47;;;1.50;;
4078;SDS011;2054;47.858;11.156;2024-01-25T16:53:30;1.90;;;1.30;;
4078;SDS011;2054;47.858;11.156;2024-01-25T16:55:57;2.10;;;1.45;;
4078;SDS011;2054;47.858;11.156;2024-01-25T16:58:25;1.33;;;1.10;;
4078;SDS011;2054;47.858;11.156;2024-01-25T17:00:51;3.92;;;2.20;;
4078;SDS011;2054;47.858;11.156;2024-01-25T17:03:18;3.42;;;1.50;;
4078;SDS011;2054;47.858;11.156;2024-01-25T17:05:45;1.60;;;1.00;;
4078;SDS011;2054;47.858;11.156;2024-01-25T17:08:13;0.82;;;0.80;;
4078;SDS011;2054;47.858;11.156;2024-01-25T17:10:43;5.03;;;1.10;;
4078;SDS011;2054;47.858;11.156;2024-01-25T17:13:10;1.13;;;0.98;;
4078;SDS011;2054;47.858;11.156;2024-01-25T17:15:38;0.73;;;0.73;;
4078;SDS011;2054;47.858;11.156;2024-01-25T17:18:05;1.85;;;0.90;;
4078;SDS011;2054;47.858;11.156;2024-01-25T17:20:32;0.70;;;0.70;;
4078;SDS011;2054;47.858;11.156;2024-01-25T17:22:59;1.70;;;0.90;;
4078;SDS011;2054;47.858;11.156;2024-01-25T17:25:26;0.80;;;0.80;;
4078;SDS011;2054;47.858;11.156;2024-01-25T17:27:55;0.90;;;0.85;;
4078;SDS011;2054;47.858;11.156;2024-01-25T17:30:22;1.85;;;0.93;;
4078;SDS011;2054;47.858;11.156;2024-01-25T17:32:49;0.90;;;0.80;;
4078;SDS011;2054;47.858;11.156;2024-01-25T17:35:16;1.25;;;0.90;;
4078;SDS011;2054;47.858;11.156;2024-01-25T17:37:43;3.15;;;2.10;;
4078;SDS011;2054;47.858;11.156;2024-01-25T17:40:11;1.25;;;1.10;;
4078;SDS011;2054;47.858;11.156;2024-01-25T17:42:38;0.65;;;0.65;;
4078;SDS011;2054;47.858;11.156;2024-01-25T17:45:08;6.97;;;3.28;;
4078;SDS011;2054;47.858;11.156;2024-01-25T17:47:35;5.97;;;3.22;;
4078;SDS011;2054;47.858;11.156;2024-01-25T17:50:04;2.72;;;1.88;;
4078;SDS011;2054;47.858;11.156;2024-01-25T17:52:33;1.27;;;1.00;;
4078;SDS011;2054;47.858;11.156;2024-01-25T17:55:01;1.67;;;0.90;;
4078;SDS011;2054;47.858;11.156;2024-01-25T17:57:30;0.98;;;0.77;;
4078;SDS011;2054;47.858;11.156;2024-01-25T18:00:01;1.00;;;0.90;;
4078;SDS011;2054;47.858;11.156;2024-01-25T18:02:32;0.90;;;0.90;;
4078;SDS011;2054;47.858;11.156;2024-01-25T18:04:59;1.10;;;1.00;;
4078;SDS011;2054;47.858;11.156;2024-01-25T18:07:26;0.90;;;0.90;;
4078;SDS011;2054;47.858;11.156;2024-01-25T18:09:53;0.85;;;0.82;;
4078;SDS011;2054;47.858;11.156;2024-01-25T18:12:21;0.88;;;0.88;;
4078;SDS011;2054;47.858;11.156;2024-01-25T18:14:48;0.57;;;0.57;;
4078;SDS011;2054;47.858;11.156;2024-01-25T18:17:15;0.80;;;0.80;;
4078;SDS011;2054;47.858;11.156;2024-01-25T18:19:44;2.00;;;1.33;;
4078;SDS011;2054;47.858;11.156;2024-01-25T18:22:10;1.05;;;0.90;;
4078;SDS011;2054;47.858;11.156;2024-01-25T18:24:38;1.48;;;1.38;;
4078;SDS011;2054;47.858;11.156;2024-01-25T18:27:04;1.58;;;1.30;;
4078;SDS011;2054;47.858;11.156;2024-01-25T18:29:32;2.22;;;1.60;;
4078;SDS011;2054;47.858;11.156;2024-01-25T18:31:59;3.75;;;2.33;;
4078;SDS011;2054;47.858;11.156;2024-01-25T18:34:26;3.17;;;2.08;;
4078;SDS011;2054;47.858;11.156;2024-01-25T18:36:55;3.70;;;2.28;;
4078;SDS011;2054;47.858;11.156;2024-01-25T18:39:22;2.95;;;2.28;;
4078;SDS011;2054;47.858;11.156;2024-01-25T18:41:49;2.90;;;1.90;;
4078;SDS011;2054;47.858;11.156;2024-01-25T18:44:18;2.30;;;1.48;;
4078;SDS011;2054;47.858;11.156;2024-01-25T18:46:45;1.23;;;1.10;;
4078;SDS011;2054;47.858;11.156;2024-01-25T18:49:16;1.73;;;1.42;;